Terminal Aerodrome Forecast
Issued by NWS Midland/Odessa, TX

Home | Current Version | Previous Version | Text Only | Print | Product List | Glossary On
Versions: 1 2 3 4 5 6 7 8 9 10 11 12 13 14 15 16 17 18 19 20 21 22 23 24 25 26 27 28 29 30 31 32 33 34 35
000
FTUS44 KMAF 222300
TAFMAF
TAF
KMAF 222333Z 2300/2324 15017G24KT P6SM BKN050
      TEMPO 2302/2306 6SM TSRA BKN020CB
     FM230600 15017G24KT P6SM OVC025
      TEMPO 2306/2310 4SM TSRA OVC015CB
     FM231000 17018KT P6SM SHRA OVC020
      TEMPO 2310/2314 4SM TSRA OVC010CB=

USA.gov is the U.S. government's official web portal to all federal, state and local government web resources and services.